Idaho Falls Regional Airport
KIDA : now visible

Airfield :











YOU CAN JOIN US ON...

 
LOGIN :

Register | Disclaimer

   EN    FR    IT 

 









Legend :    VFR   Marginal VFR   IFR   Intensive IFR   Very Intensive IFR
Visi :
Ceiling :
>= 8 km
>= 3000ft
5 to 8 km
1000 to 3000 ft
1500m to 5 km
500 to 1000 ft
800 to 1500m
200 to 500 ft
< 800m
< 200 ft
Symbols :   Thunderstorms  Fog  Heavy snow  Heavy precipitations  Wind > 20 kt






- Airport Elevation : 4744 ft
- IATA code : IDA


KIDA - Idaho Falls Regional

CURRENT METAR :
  • 260353Z AUTO 21009KT 2SM BR BKN007 OVC012 01/M01 A3016 RMK AO2 CIG 006V011 SLP236 T00061006

EXPIRED METARs :
  • 260339Z AUTO 22006KT 7SM BKN010 OVC018 01/M01 A3016 RMK AO2 T00061011
  • 260253Z 00000KT 10SM BKN020 OVC027 01/M01 A3015 RMK AO2 SLP231 T00111011 51007
  • 260153Z 18003KT 10SM OVC040 02/M01 A3015 RMK AO2 SLP229 T00171011

TAF KIDA
Valid from the 26 at 04:00 until the 27 at 00:00 UTC


260359Z 2604/2624 22008KT P6SM BKN010 OVC020
TEMPO 2604/2608 1SM BR BKN006 OVC010
FM261200 33005KT P6SM VCSH BKN007 OVC015
FM261800 21010KT 3SM -RASN BR BKN004 OVC010



MET'MAP, your aeronautical weather chart ! - Copyright ORBIFLY December 2007 - Disclaimer

ORBIFLY MET'MAP TEAM :

Programming & Development : Alexandra Zaïnal
Concept & original design : Baudouin d'Aumeries
Assistance for programming : Marc-Olivier Méhu
Technical & hardware support : Manuel Goepfert

Contact : metmap@orbifly.com




SOURCES & CREDITS :

   NOAA       Earth
Advisory